createdAt,value
2017-08-20T00:02:23.940Z,85.08
2017-08-20T00:04:52.421Z,84.95
2017-08-20T00:07:20.738Z,84.52
2017-08-20T00:09:49.084Z,84.72
2017-08-20T00:12:17.409Z,85.27
2017-08-20T00:14:45.745Z,85.13
2017-08-20T00:17:14.088Z,84.54
2017-08-20T00:19:42.765Z,84.72
2017-08-20T00:22:11.079Z,84.61
2017-08-20T00:24:39.399Z,84.48
2017-08-20T00:27:07.820Z,84.28
2017-08-20T00:29:36.485Z,85.04
2017-08-20T00:32:05.792Z,84.67
2017-08-20T00:34:34.200Z,84.67
2017-08-20T00:37:02.553Z,84.81
2017-08-20T00:39:31.652Z,84.63
2017-08-20T00:41:59.977Z,84.63
2017-08-20T00:44:28.311Z,85.59
2017-08-20T00:46:56.661Z,86.25
2017-08-20T00:49:25.785Z,86.26
2017-08-20T00:51:54.099Z,85.75
2017-08-20T00:54:22.705Z,85.53
2017-08-20T00:56:51.063Z,85.66
2017-08-20T00:59:19.382Z,85.22
2017-08-20T01:01:47.723Z,85.36
2017-08-20T01:04:16.052Z,85.78
2017-08-20T01:06:44.386Z,85.81
2017-08-20T01:09:12.698Z,86.19
2017-08-20T01:11:41.514Z,85.77
2017-08-20T01:14:09.844Z,86.22
2017-08-20T01:16:38.187Z,86.39
2017-08-20T01:19:06.515Z,86.09
2017-08-20T01:21:34.988Z,85.38
2017-08-20T01:24:03.337Z,85.40
2017-08-20T01:26:31.669Z,85.52
2017-08-20T01:29:01.085Z,85.53
2017-08-20T01:31:29.417Z,86.38
2017-08-20T01:33:57.741Z,85.84
2017-08-20T01:36:27.745Z,85.80
2017-08-20T01:38:56.062Z,85.74
2017-08-20T01:41:24.452Z,85.74
2017-08-20T01:43:52.808Z,85.72
2017-08-20T01:46:21.595Z,85.19
2017-08-20T01:48:49.927Z,85.45
2017-08-20T01:51:18.252Z,86.19
2017-08-20T01:53:47.369Z,85.65
2017-08-20T01:56:15.700Z,85.65
2017-08-20T01:58:44.047Z,85.40
2017-08-20T02:01:12.590Z,84.99
2017-08-20T02:03:41.006Z,85.21
2017-08-20T02:06:09.359Z,85.67
2017-08-20T02:08:37.694Z,85.33
2017-08-20T02:11:06.045Z,85.37
2017-08-20T02:13:34.361Z,85.33
2017-08-20T02:16:02.701Z,85.11
2017-08-20T02:18:31.017Z,85.18
2017-08-20T02:20:59.352Z,85.24
2017-08-20T02:23:27.688Z,85.27
2017-08-20T02:25:55.995Z,85.30
2017-08-20T02:28:24.327Z,85.00
2017-08-20T02:30:52.635Z,84.86
2017-08-20T02:33:21.251Z,84.99
2017-08-20T02:35:49.582Z,85.36
2017-08-20T02:38:17.909Z,85.78
2017-08-20T02:40:46.256Z,85.52
2017-08-20T02:43:14.581Z,84.93
2017-08-20T02:45:42.909Z,85.17
2017-08-20T02:48:11.229Z,86.27
2017-08-20T02:50:39.559Z,86.55
2017-08-20T02:53:07.902Z,86.45
2017-08-20T02:55:36.248Z,85.66
2017-08-20T02:58:05.269Z,84.87
2017-08-20T03:00:33.588Z,85.06
2017-08-20T03:03:01.936Z,86.24
2017-08-20T03:05:30.265Z,86.25
2017-08-20T03:07:58.843Z,85.95
2017-08-20T03:10:27.161Z,85.41
2017-08-20T03:12:55.486Z,85.82
2017-08-20T03:15:23.834Z,86.07
2017-08-20T03:17:52.155Z,85.89
2017-08-20T03:20:20.515Z,86.06
2017-08-20T03:22:48.838Z,86.33
2017-08-20T03:25:17.445Z,86.44
2017-08-20T03:27:45.774Z,85.77
2017-08-20T03:30:14.101Z,85.50
2017-08-20T03:32:42.440Z,85.08
2017-08-20T03:35:10.768Z,85.14
2017-08-20T03:37:39.125Z,85.21
2017-08-20T03:40:07.452Z,85.50
2017-08-20T03:42:36.037Z,85.20
2017-08-20T03:45:04.356Z,85.20
2017-08-20T03:47:32.691Z,85.36
2017-08-20T03:50:01.034Z,85.58
2017-08-20T03:52:29.353Z,85.88
2017-08-20T03:54:57.682Z,86.11
2017-08-20T03:57:26.017Z,86.32
2017-08-20T03:59:54.360Z,86.44
2017-08-20T04:02:22.675Z,85.87
2017-08-20T04:04:51.061Z,85.75
2017-08-20T04:07:19.389Z,86.45
2017-08-20T04:09:47.694Z,86.76
2017-08-20T04:12:16.027Z,86.45
2017-08-20T04:14:44.331Z,86.53
2017-08-20T04:17:12.672Z,86.24
2017-08-20T04:19:40.983Z,86.68
2017-08-20T04:22:09.406Z,86.71
2017-08-20T04:24:37.814Z,86.28
2017-08-20T04:27:06.144Z,86.36
2017-08-20T04:29:34.489Z,86.23
2017-08-20T04:32:02.815Z,86.97
2017-08-20T04:34:31.142Z,86.81
2017-08-20T04:36:59.473Z,86.93
2017-08-20T04:39:27.797Z,86.81
2017-08-20T04:41:56.867Z,87.07
2017-08-20T04:44:25.188Z,86.59
2017-08-20T04:46:53.490Z,87.60
2017-08-20T04:49:21.810Z,86.90
2017-08-20T04:51:50.129Z,87.51
2017-08-20T04:54:18.467Z,87.22
2017-08-20T04:56:46.788Z,87.05
2017-08-20T04:59:15.358Z,87.41
2017-08-20T05:01:43.777Z,87.15
2017-08-20T05:04:12.202Z,87.12
2017-08-20T05:06:40.557Z,87.74
2017-08-20T05:09:08.871Z,88.08
2017-08-20T05:11:37.195Z,87.27
2017-08-20T05:14:05.498Z,87.70
2017-08-20T05:16:33.833Z,88.07
2017-08-20T05:19:02.154Z,88.39
2017-08-20T05:21:30.472Z,88.14
2017-08-20T05:23:58.801Z,87.89
2017-08-20T05:26:27.154Z,88.09
2017-08-20T05:28:55.497Z,87.38
2017-08-20T05:31:23.808Z,88.00
2017-08-20T05:33:52.399Z,87.84
2017-08-20T05:36:20.733Z,87.40
2017-08-20T05:38:49.140Z,87.62
2017-08-20T05:41:17.463Z,87.71
2017-08-20T05:43:45.792Z,88.45
2017-08-20T05:46:14.129Z,88.37
2017-08-20T05:48:42.461Z,88.00
2017-08-20T05:51:10.791Z,88.31
2017-08-20T05:53:39.135Z,88.58
2017-08-20T05:56:07.462Z,88.67
2017-08-20T05:58:35.799Z,88.85
2017-08-20T06:01:04.114Z,88.96
2017-08-20T06:03:32.449Z,88.87
2017-08-20T06:06:00.817Z,88.56
2017-08-20T06:08:29.146Z,88.80
2017-08-20T06:10:57.480Z,88.54
2017-08-20T06:13:25.798Z,88.36
2017-08-20T06:15:54.130Z,88.34
2017-08-20T06:18:22.510Z,89.20
2017-08-20T06:20:50.850Z,89.51
2017-08-20T06:23:19.197Z,89.16
2017-08-20T06:25:47.518Z,89.31
2017-08-20T06:28:16.154Z,89.25
2017-08-20T06:30:44.485Z,89.32
2017-08-20T06:33:12.822Z,89.38
2017-08-20T06:35:41.177Z,89.89
2017-08-20T06:38:09.499Z,88.93
2017-08-20T06:40:37.848Z,89.66
2017-08-20T06:43:06.181Z,88.90
2017-08-20T06:45:34.515Z,88.45
2017-08-20T06:48:02.862Z,89.71
2017-08-20T06:50:31.214Z,89.45
2017-08-20T06:52:59.546Z,88.95
2017-08-20T06:55:27.870Z,89.52
2017-08-20T06:57:56.504Z,89.85
2017-08-20T07:00:24.837Z,89.91
2017-08-20T07:02:53.195Z,89.41
2017-08-20T07:05:21.528Z,89.02
2017-08-20T07:07:49.842Z,89.30
2017-08-20T07:10:18.191Z,89.68
2017-08-20T07:12:46.517Z,89.27
2017-08-20T07:15:14.870Z,88.57
2017-08-20T07:17:43.226Z,88.41
2017-08-20T07:20:11.538Z,87.94
2017-08-20T07:22:39.883Z,87.35
2017-08-20T07:25:08.210Z,86.77
2017-08-20T07:27:36.573Z,86.39
2017-08-20T07:30:04.896Z,84.95
2017-08-20T07:32:33.483Z,84.83
2017-08-20T07:35:01.804Z,85.26
2017-08-20T07:37:30.128Z,85.62
2017-08-20T07:39:58.505Z,85.10
2017-08-20T07:42:26.830Z,84.79
2017-08-20T07:44:55.205Z,83.85
2017-08-20T07:47:23.523Z,82.98
2017-08-20T07:49:51.868Z,84.10
2017-08-20T07:52:20.187Z,83.81
2017-08-20T07:54:48.502Z,83.42
2017-08-20T07:57:16.852Z,83.68
2017-08-20T07:59:45.176Z,83.60
2017-08-20T08:02:13.509Z,82.15
2017-08-20T08:04:41.851Z,82.03
2017-08-20T08:07:10.196Z,81.82
2017-08-20T08:09:38.545Z,82.19
2017-08-20T08:12:06.879Z,80.89
2017-08-20T08:14:35.211Z,78.82
2017-08-20T08:17:03.541Z,80.19
2017-08-20T08:19:31.930Z,77.62
2017-08-20T08:22:00.295Z,79.54
2017-08-20T08:24:28.671Z,79.55
2017-08-20T08:26:57.049Z,78.53
2017-08-20T08:29:25.375Z,78.16
2017-08-20T08:31:53.721Z,78.53
2017-08-20T08:34:22.061Z,77.28
2017-08-20T08:36:50.653Z,77.56
2017-08-20T08:39:18.982Z,77.26
2017-08-20T08:41:47.324Z,76.66
2017-08-20T08:44:15.674Z,76.04
2017-08-20T08:46:44.002Z,74.61
2017-08-20T08:49:12.357Z,72.93
2017-08-20T08:51:40.675Z,72.39
2017-08-20T08:54:09.032Z,71.86
2017-08-20T08:56:37.394Z,71.80
2017-08-20T08:59:05.721Z,70.18
2017-08-20T09:01:34.085Z,70.33
2017-08-20T09:04:02.422Z,69.68
2017-08-20T09:06:30.787Z,67.81
2017-08-20T09:08:59.153Z,68.52
2017-08-20T09:11:27.495Z,69.19
2017-08-20T09:13:55.845Z,68.35
2017-08-20T09:16:24.168Z,68.33
2017-08-20T09:18:52.514Z,67.54
2017-08-20T09:21:20.844Z,67.77
2017-08-20T09:23:49.196Z,67.82
2017-08-20T09:26:17.545Z,66.99
2017-08-20T09:28:45.878Z,69.28
2017-08-20T09:31:14.218Z,67.37
2017-08-20T09:33:42.558Z,66.55
2017-08-20T09:36:10.922Z,68.35
2017-08-20T09:38:39.267Z,68.53
2017-08-20T09:41:07.639Z,67.04
2017-08-20T09:43:36.014Z,66.07
2017-08-20T09:46:04.364Z,66.79
2017-08-20T09:48:32.708Z,67.15
2017-08-20T09:51:01.059Z,65.65
2017-08-20T09:53:29.433Z,66.70
2017-08-20T09:55:57.764Z,65.96
2017-08-20T09:58:26.391Z,64.60
2017-08-20T10:00:55.611Z,64.58
2017-08-20T10:03:23.976Z,63.36
2017-08-20T10:05:52.324Z,63.42
2017-08-20T10:08:20.667Z,62.67
2017-08-20T10:10:49.023Z,62.46
2017-08-20T10:13:17.360Z,60.53
2017-08-20T10:15:45.993Z,60.84
2017-08-20T10:18:14.333Z,62.17
2017-08-20T10:20:42.651Z,62.57
2017-08-20T10:23:10.995Z,62.60
2017-08-20T10:25:39.325Z,62.95
2017-08-20T10:28:07.744Z,61.66
2017-08-20T10:30:36.062Z,59.34
2017-08-20T10:33:04.421Z,60.82
2017-08-20T10:35:32.790Z,59.16
2017-08-20T10:38:01.142Z,59.88
2017-08-20T10:40:29.535Z,58.72
2017-08-20T10:42:58.463Z,58.15
2017-08-20T10:45:26.797Z,58.33
2017-08-20T10:47:55.133Z,57.41
2017-08-20T10:50:23.753Z,58.07
2017-08-20T10:52:52.090Z,58.32
2017-08-20T10:55:20.410Z,60.13
2017-08-20T10:57:48.784Z,59.27
2017-08-20T11:00:17.113Z,59.53
2017-08-20T11:02:45.476Z,57.88
2017-08-20T11:05:13.823Z,59.37
2017-08-20T11:07:43.237Z,60.45
2017-08-20T11:10:11.573Z,60.50
2017-08-20T11:12:39.951Z,59.02
2017-08-20T11:15:08.296Z,57.63
2017-08-20T11:17:37.284Z,54.67
2017-08-20T11:20:05.628Z,55.72
2017-08-20T11:22:33.954Z,55.12
2017-08-20T11:25:02.610Z,55.12
2017-08-20T11:27:30.960Z,55.49
2017-08-20T11:29:59.290Z,57.15
2017-08-20T11:32:27.643Z,55.61
2017-08-20T11:34:55.972Z,55.44
2017-08-20T11:37:24.388Z,54.54
2017-08-20T11:39:52.719Z,53.51
2017-08-20T11:42:21.613Z,52.04
2017-08-20T11:44:49.950Z,54.44
2017-08-20T11:47:18.362Z,55.65
2017-08-20T11:49:46.737Z,55.46
2017-08-20T11:52:15.085Z,54.36
2017-08-20T11:54:43.446Z,53.93
2017-08-20T11:57:11.786Z,54.30
2017-08-20T11:59:40.128Z,53.62
2017-08-20T12:02:08.474Z,51.96
2017-08-20T12:04:36.816Z,50.68
2017-08-20T12:07:05.178Z,50.26
2017-08-20T12:09:33.522Z,52.42
2017-08-20T12:12:01.892Z,52.13
2017-08-20T12:14:30.268Z,52.07
2017-08-20T12:16:58.841Z,53.12
2017-08-20T12:19:27.176Z,51.42
2017-08-20T12:21:55.520Z,50.85
2017-08-20T12:24:24.631Z,51.54
2017-08-20T12:26:52.965Z,51.52
2017-08-20T12:29:21.326Z,52.29
2017-08-20T12:31:49.679Z,51.86
2017-08-20T12:34:18.305Z,53.33
2017-08-20T12:36:46.667Z,54.02
2017-08-20T12:39:15.008Z,54.47
2017-08-20T12:41:43.378Z,54.50
2017-08-20T12:44:12.179Z,56.44
2017-08-20T12:46:40.541Z,55.99
2017-08-20T12:49:08.870Z,54.12
2017-08-20T12:51:37.503Z,55.08
2017-08-20T12:54:05.851Z,57.01
2017-08-20T12:56:34.184Z,54.07
2017-08-20T12:59:02.614Z,54.61
2017-08-20T13:01:30.932Z,52.10
2017-08-20T13:03:59.302Z,52.94
2017-08-20T13:06:27.655Z,51.39
2017-08-20T13:08:56.009Z,52.39
2017-08-20T13:11:24.382Z,52.84
2017-08-20T13:13:52.739Z,51.33
2017-08-20T13:16:21.095Z,51.12
2017-08-20T13:18:49.439Z,51.24
2017-08-20T13:21:20.481Z,52.66
2017-08-20T13:23:48.814Z,51.61
2017-08-20T13:26:17.504Z,50.24
2017-08-20T13:28:45.861Z,51.80
2017-08-20T13:31:14.205Z,51.29
2017-08-20T13:33:42.559Z,52.40
2017-08-20T13:36:10.871Z,52.32
2017-08-20T13:38:39.226Z,56.30
2017-08-20T13:41:08.557Z,54.13
2017-08-20T13:43:36.942Z,54.65
2017-08-20T13:46:05.301Z,55.56
2017-08-20T13:48:34.402Z,53.42
2017-08-20T13:51:02.749Z,54.43
2017-08-20T13:53:31.107Z,53.30
2017-08-20T13:55:59.519Z,52.13
2017-08-20T13:58:27.876Z,53.32
2017-08-20T14:00:56.642Z,54.44
2017-08-20T14:03:25.033Z,52.49
2017-08-20T14:05:53.397Z,53.12
2017-08-20T14:08:21.809Z,51.45
2017-08-20T14:10:50.141Z,53.04
2017-08-20T14:13:18.600Z,52.55
2017-08-20T14:15:46.954Z,49.59
2017-08-20T14:18:15.308Z,49.83
2017-08-20T14:20:43.701Z,50.00
2017-08-20T14:23:12.033Z,51.40
2017-08-20T14:25:40.382Z,49.79
2017-08-20T14:28:08.745Z,49.85
2017-08-20T14:30:37.103Z,49.81
2017-08-20T14:33:05.524Z,50.87
2017-08-20T14:35:33.866Z,50.81
2017-08-20T14:38:02.196Z,50.08
2017-08-20T14:40:30.558Z,51.56
2017-08-20T14:42:59.736Z,51.40
2017-08-20T14:45:28.080Z,53.07
2017-08-20T14:47:56.431Z,52.97
2017-08-20T14:50:24.805Z,51.47
2017-08-20T14:52:53.151Z,51.31
2017-08-20T14:55:21.503Z,53.81
2017-08-20T14:57:49.875Z,51.96
2017-08-20T15:00:18.230Z,52.72
2017-08-20T15:02:46.606Z,51.69
2017-08-20T15:05:14.960Z,55.29
2017-08-20T15:07:43.744Z,53.85
2017-08-20T15:10:12.089Z,54.33
2017-08-20T15:12:40.519Z,51.29
2017-08-20T15:15:08.878Z,51.48
2017-08-20T15:17:37.232Z,52.79
2017-08-20T15:20:05.619Z,52.22
2017-08-20T15:22:33.939Z,50.29
2017-08-20T15:25:02.289Z,47.63
2017-08-20T15:27:32.581Z,45.76
2017-08-20T15:30:01.700Z,46.25
2017-08-20T15:32:30.039Z,46.04
2017-08-20T15:34:58.387Z,46.72
2017-08-20T15:37:26.727Z,46.82
2017-08-20T15:39:55.065Z,48.18
2017-08-20T15:42:23.416Z,47.38
2017-08-20T15:44:51.756Z,47.38
2017-08-20T15:47:20.460Z,45.47
2017-08-20T15:49:49.393Z,43.83
2017-08-20T15:52:17.729Z,44.90
2017-08-20T15:54:46.092Z,48.19
2017-08-20T15:57:14.433Z,49.85
2017-08-20T15:59:42.803Z,47.51
2017-08-20T16:02:11.228Z,48.02
2017-08-20T16:04:39.614Z,47.94
2017-08-20T16:07:08.025Z,49.08
2017-08-20T16:09:37.100Z,52.91
2017-08-20T16:12:05.913Z,51.67
2017-08-20T16:14:34.244Z,51.19
2017-08-20T16:17:02.603Z,52.28
2017-08-20T16:19:31.028Z,51.96
2017-08-20T16:22:00.490Z,52.89
2017-08-20T16:24:28.819Z,51.78
2017-08-20T16:26:57.154Z,51.68
2017-08-20T16:29:25.482Z,51.56
2017-08-20T16:31:53.810Z,53.00
2017-08-20T16:34:22.447Z,54.34
2017-08-20T16:36:50.788Z,53.94
2017-08-20T16:39:19.123Z,52.21
2017-08-20T16:41:47.486Z,52.48
2017-08-20T16:44:15.806Z,55.15
2017-08-20T16:46:44.166Z,51.79
2017-08-20T16:49:12.503Z,52.41
2017-08-20T16:51:40.858Z,50.76
2017-08-20T16:54:09.265Z,52.42
2017-08-20T16:56:37.618Z,53.02
2017-08-20T16:59:05.963Z,54.70
2017-08-20T17:01:34.287Z,53.72
2017-08-20T17:04:02.625Z,56.81
2017-08-20T17:06:31.029Z,57.09
2017-08-20T17:08:59.402Z,58.59
2017-08-20T17:11:27.763Z,56.00
2017-08-20T17:13:56.102Z,55.56
2017-08-20T17:16:24.445Z,56.96
2017-08-20T17:18:52.861Z,59.37
2017-08-20T17:21:21.214Z,58.23
2017-08-20T17:23:49.541Z,58.39
2017-08-20T17:26:18.136Z,60.38
2017-08-20T17:28:46.500Z,62.71
2017-08-20T17:31:14.834Z,62.11
2017-08-20T17:33:43.170Z,63.82
2017-08-20T17:36:11.519Z,63.72
2017-08-20T17:38:39.902Z,63.67
2017-08-20T17:41:08.270Z,64.24
2017-08-20T17:43:36.881Z,65.26
2017-08-20T17:46:05.213Z,65.39
2017-08-20T17:48:33.557Z,65.82
2017-08-20T17:51:01.905Z,65.81
2017-08-20T17:53:30.248Z,66.39
2017-08-20T17:55:58.633Z,67.34
2017-08-20T17:58:26.986Z,67.48
2017-08-20T18:00:55.351Z,67.77
2017-08-20T18:03:23.701Z,68.39
2017-08-20T18:05:52.025Z,68.69
2017-08-20T18:08:20.379Z,69.53
2017-08-20T18:10:48.755Z,70.17
2017-08-20T18:13:17.371Z,70.35
2017-08-20T18:15:45.702Z,71.00
2017-08-20T18:18:14.698Z,71.03
2017-08-20T18:20:43.061Z,71.50
2017-08-20T18:23:11.387Z,72.18
2017-08-20T18:25:39.755Z,72.09
2017-08-20T18:28:08.125Z,72.32
2017-08-20T18:30:36.521Z,72.02
2017-08-20T18:33:04.895Z,72.10
2017-08-20T18:35:33.234Z,72.13
2017-08-20T18:38:01.866Z,72.25
2017-08-20T18:40:30.208Z,72.99
2017-08-20T18:42:58.544Z,73.78
2017-08-20T18:45:26.907Z,74.19
2017-08-20T18:47:55.237Z,74.04
2017-08-20T18:50:23.909Z,73.49
2017-08-20T18:52:52.248Z,74.62
2017-08-20T18:55:20.583Z,74.05
2017-08-20T18:57:49.476Z,74.36
2017-08-20T19:00:17.810Z,74.51
2017-08-20T19:02:46.495Z,74.93
2017-08-20T19:05:14.856Z,75.98
2017-08-20T19:07:43.188Z,76.95
2017-08-20T19:10:11.551Z,76.67
2017-08-20T19:12:39.894Z,76.72
2017-08-20T19:15:08.278Z,77.33
2017-08-20T19:17:36.619Z,77.25
2017-08-20T19:20:04.961Z,77.09
2017-08-20T19:22:33.319Z,76.15
2017-08-20T19:25:01.660Z,76.54
2017-08-20T19:27:30.031Z,76.97
2017-08-20T19:29:58.376Z,76.70
2017-08-20T19:32:26.745Z,77.60
2017-08-20T19:34:55.107Z,78.37
2017-08-20T19:37:23.441Z,78.25
2017-08-20T19:39:52.075Z,78.85
2017-08-20T19:42:20.413Z,78.41
2017-08-20T19:44:48.768Z,78.03
2017-08-20T19:47:17.590Z,77.83
2017-08-20T19:49:46.562Z,78.43
2017-08-20T19:52:15.556Z,78.53
2017-08-20T19:54:44.399Z,78.13
2017-08-20T19:57:13.875Z,78.35
2017-08-20T19:59:42.903Z,79.29
2017-08-20T20:02:11.691Z,79.61
2017-08-20T20:04:41.216Z,79.16
2017-08-20T20:07:09.540Z,79.25
2017-08-20T20:09:37.885Z,80.49
2017-08-20T20:12:06.256Z,80.41
2017-08-20T20:14:34.602Z,79.60
2017-08-20T20:17:03.001Z,79.70
2017-08-20T20:19:31.356Z,80.66
2017-08-20T20:21:59.713Z,80.42
2017-08-20T20:24:28.046Z,81.54
2017-08-20T20:26:56.443Z,81.64
2017-08-20T20:29:24.801Z,80.62
2017-08-20T20:31:53.143Z,80.37
2017-08-20T20:34:21.508Z,80.09
2017-08-20T20:36:49.858Z,80.64
2017-08-20T20:39:18.286Z,81.59
2017-08-20T20:41:46.618Z,81.15
2017-08-20T20:44:15.010Z,80.95
2017-08-20T20:46:43.406Z,81.29
2017-08-20T20:49:11.771Z,82.09
2017-08-20T20:51:40.125Z,81.83
2017-08-20T20:54:08.457Z,81.19
2017-08-20T20:56:36.793Z,81.02
2017-08-20T20:59:05.140Z,81.32
2017-08-20T21:01:33.455Z,81.61
2017-08-20T21:04:02.758Z,81.15
2017-08-20T21:06:31.114Z,80.99
2017-08-20T21:08:59.446Z,81.53
2017-08-20T21:11:27.821Z,81.54
2017-08-20T21:13:56.178Z,81.46
2017-08-20T21:16:24.569Z,81.81
2017-08-20T21:18:52.902Z,82.00
2017-08-20T21:21:21.265Z,82.02
2017-08-20T21:23:49.645Z,81.54
2017-08-20T21:26:18.009Z,81.55
2017-08-20T21:28:46.621Z,81.93
2017-08-20T21:31:14.952Z,81.72
2017-08-20T21:33:43.306Z,81.65
2017-08-20T21:36:11.670Z,82.59
2017-08-20T21:38:40.044Z,82.36
2017-08-20T21:41:08.405Z,82.73
2017-08-20T21:43:36.762Z,82.55
2017-08-20T21:46:05.092Z,82.25
2017-08-20T21:48:33.451Z,81.88
2017-08-20T21:51:01.774Z,81.49
2017-08-20T21:53:30.381Z,82.51
2017-08-20T21:55:58.725Z,83.19
2017-08-20T21:58:27.049Z,83.48
2017-08-20T22:00:55.391Z,83.56
2017-08-20T22:03:23.729Z,83.54
2017-08-20T22:05:52.343Z,83.01
2017-08-20T22:08:20.695Z,83.00
2017-08-20T22:10:49.022Z,83.49
2017-08-20T22:13:17.356Z,83.55
2017-08-20T22:15:45.684Z,83.18
2017-08-20T22:18:14.029Z,83.18
2017-08-20T22:20:42.374Z,83.95
2017-08-20T22:23:10.740Z,84.04
2017-08-20T22:25:39.089Z,83.94
2017-08-20T22:28:07.438Z,84.78
2017-08-20T22:30:35.780Z,84.42
2017-08-20T22:33:04.124Z,83.83
2017-08-20T22:35:32.461Z,83.50
2017-08-20T22:38:00.781Z,83.17
2017-08-20T22:40:29.129Z,83.08
2017-08-20T22:42:57.443Z,83.51
2017-08-20T22:45:26.033Z,84.05
2017-08-20T22:47:55.246Z,84.77
2017-08-20T22:50:23.567Z,85.22
2017-08-20T22:52:51.909Z,84.94
2017-08-20T22:55:20.267Z,84.46
2017-08-20T22:57:48.635Z,85.58
2017-08-20T23:00:16.957Z,85.45
2017-08-20T23:02:45.301Z,84.92
2017-08-20T23:05:13.630Z,84.22
2017-08-20T23:07:41.970Z,84.88
2017-08-20T23:10:10.320Z,84.93
2017-08-20T23:12:38.660Z,85.32
2017-08-20T23:15:07.002Z,84.81
2017-08-20T23:17:35.342Z,84.98
2017-08-20T23:20:03.969Z,85.16
2017-08-20T23:22:32.281Z,85.40
2017-08-20T23:25:00.615Z,85.28
2017-08-20T23:27:28.971Z,84.99
2017-08-20T23:29:57.306Z,85.10
2017-08-20T23:32:25.658Z,85.22
2017-08-20T23:34:54.004Z,84.46
2017-08-20T23:37:22.632Z,84.87
2017-08-20T23:39:50.950Z,84.35
2017-08-20T23:42:19.284Z,84.82
2017-08-20T23:44:47.643Z,84.72
2017-08-20T23:47:15.980Z,84.83
2017-08-20T23:49:44.335Z,85.08
2017-08-20T23:52:12.673Z,84.83
2017-08-20T23:54:41.266Z,85.11
2017-08-20T23:57:09.605Z,85.43
2017-08-20T23:59:37.942Z,85.09
